Portada
METAR-TAF:

METAR-TAF

Aeroports :

Quebec, Quebec, Canadà

latitud: 46-48N, longitud: 071-23W, altitud: 70 m

Observació

L'informe es va fer fa 1 hora i 4 minuts, a les 02:00 UTC
Vent 3 kt del Sud-Oest
Temperatura 18°C
Humitat 73%
Pressió 1017 hPa
Visibilitat: 24.1 km
Núvols disperses a una alçada de 26000 ft

METAR: CYQB 200200Z 22003KT 15SM SCT260 18/13 A3004 RMK CI4 SLP174 DENSITY ALT 500FT

Hora: 23:04 (03:04 UTC)

Pronòstic

L'informe es va fer fa 3 hores i 26 minuts, a les 23:38 UTC
Pronòstic vàlid del 20 a les 00 UTC al 20 a les 24 UTC
Vent 10 kt del Oest/Sud-Oest
Visibilitat: 10 km
Cel clar
Evolucionant progressivament
l' 20 a les 00 UTC al 20 a les 02 UTC
Vent 5 kt del Oest/Sud-Oest

TAF: CYQB 192338Z 2000/2024 24010KT P6SM SKC BECMG 2000/2002 24005KT RMK NXT FCST BY 200600Z

Observacions i pronòstics meteorològics de més de 4000 aeroports (METAR i TAF).

Les estacions disponibles són els punts grocs i vermells al mapa.

Posi el ratolí al punt desitjat per veure el nom de l'estació.

Feu clic per veure les observacions i els pronòstics meteorològics.

Per canviar el mapa: feu clic els botons verds amb una creu de color negre per apropar; al botó verd amb un guió per allunyar la imatge; o en les fletxes verdes per a mapes adjacents.


METAR-TAF: